createdAt,value
2018-01-25T00:00:42.749Z,0.50
2018-01-25T00:03:10.691Z,0.87
2018-01-25T00:05:38.621Z,3.97
2018-01-25T00:08:06.570Z,0.90
2018-01-25T00:10:34.507Z,0.80
2018-01-25T00:13:02.427Z,0.70
2018-01-25T00:15:30.394Z,0.97
2018-01-25T00:17:58.350Z,2.30
2018-01-25T00:20:26.295Z,0.70
2018-01-25T00:22:54.209Z,2.27
2018-01-25T00:25:22.160Z,1.23
2018-01-25T00:27:50.083Z,1.40
2018-01-25T00:30:17.983Z,1.30
2018-01-25T00:32:45.949Z,2.00
2018-01-25T00:35:13.877Z,2.40
2018-01-25T00:37:41.802Z,3.30
2018-01-25T00:40:09.783Z,3.90
2018-01-25T00:42:37.733Z,4.33
2018-01-25T00:45:05.652Z,3.50
2018-01-25T00:47:33.635Z,3.83
2018-01-25T00:50:01.572Z,3.10
2018-01-25T00:52:29.498Z,3.90
2018-01-25T00:54:57.479Z,2.90
2018-01-25T00:57:25.383Z,2.60
2018-01-25T00:59:53.467Z,3.73
2018-01-25T01:02:21.632Z,9.67
2018-01-25T01:04:49.579Z,2.50
2018-01-25T01:07:17.528Z,1.90
2018-01-25T01:09:45.486Z,6.33
2018-01-25T01:12:13.386Z,3.67
2018-01-25T01:14:41.319Z,2.20
2018-01-25T01:17:09.314Z,6.90
2018-01-25T01:19:37.275Z,2.00
2018-01-25T01:22:05.217Z,2.37
2018-01-25T01:24:33.204Z,2.80
2018-01-25T01:27:01.145Z,2.93
2018-01-25T01:29:29.140Z,2.80
2018-01-25T01:31:57.123Z,2.73
2018-01-25T01:34:25.069Z,22.07
2018-01-25T01:36:52.994Z,1.80
2018-01-25T01:39:20.968Z,2.20
2018-01-25T01:41:48.903Z,3.93
2018-01-25T01:44:16.807Z,2.50
2018-01-25T01:46:44.762Z,2.80
2018-01-25T01:49:12.720Z,2.00
2018-01-25T01:51:40.668Z,1.73
2018-01-25T01:54:08.671Z,1.80
2018-01-25T01:56:36.605Z,2.70
2018-01-25T01:59:04.527Z,1.80
2018-01-25T02:01:32.544Z,2.53
2018-01-25T02:04:00.717Z,2.30
2018-01-25T02:06:28.625Z,1.33
2018-01-25T02:08:56.571Z,3.23
2018-01-25T02:11:24.519Z,5.70
2018-01-25T02:13:52.445Z,2.23
2018-01-25T02:16:20.395Z,2.73
2018-01-25T02:18:48.341Z,2.40
2018-01-25T02:21:16.338Z,1.00
2018-01-25T02:23:44.271Z,0.80
2018-01-25T02:26:12.259Z,1.70
2018-01-25T02:28:40.196Z,2.17
2018-01-25T02:31:08.125Z,1.57
2018-01-25T02:33:36.047Z,0.80
2018-01-25T02:36:03.957Z,1.47
2018-01-25T02:38:31.887Z,1.50
2018-01-25T02:40:59.836Z,2.70
2018-01-25T02:43:27.748Z,2.13
2018-01-25T02:45:55.708Z,2.30
2018-01-25T02:48:23.652Z,2.00
2018-01-25T02:50:51.560Z,4.10
2018-01-25T02:53:19.522Z,3.17
2018-01-25T02:55:47.456Z,4.93
2018-01-25T02:58:13.643Z,1.70
2018-01-25T03:00:40.618Z,1.73
2018-01-25T03:03:06.853Z,2.70
2018-01-25T03:05:33.264Z,0.97
2018-01-25T03:08:00.210Z,0.90
2018-01-25T03:10:27.131Z,2.60
2018-01-25T03:12:53.327Z,1.17
2018-01-25T03:15:19.548Z,2.13
2018-01-25T03:17:45.749Z,3.50
2018-01-25T03:20:11.926Z,3.20
2018-01-25T03:22:38.174Z,4.80
2018-01-25T03:25:04.368Z,2.47
2018-01-25T03:27:30.568Z,2.83
2018-01-25T03:29:57.529Z,1.60
2018-01-25T03:32:23.767Z,0.80
2018-01-25T03:34:49.919Z,1.10
2018-01-25T03:37:16.856Z,4.43
2018-01-25T03:39:43.043Z,3.50
2018-01-25T03:42:09.216Z,3.10
2018-01-25T03:44:35.453Z,2.50
2018-01-25T03:47:01.668Z,2.13
2018-01-25T03:49:27.831Z,4.50
2018-01-25T03:51:56.520Z,2.43
2018-01-25T03:54:22.676Z,1.20
2018-01-25T03:56:48.912Z,2.43
2018-01-25T03:59:15.141Z,2.40
2018-01-25T04:01:42.043Z,1.80
2018-01-25T04:04:10.011Z,2.70
2018-01-25T04:06:38.064Z,4.20
2018-01-25T04:09:04.264Z,3.47
2018-01-25T04:11:31.194Z,2.10
2018-01-25T04:13:57.429Z,3.83
2018-01-25T04:16:25.130Z,2.97
2018-01-25T04:18:51.348Z,4.33
2018-01-25T04:21:18.304Z,3.23
2018-01-25T04:23:45.216Z,4.13
2018-01-25T04:26:13.071Z,4.80
2018-01-25T04:28:39.292Z,4.27
2018-01-25T04:31:05.456Z,4.30
2018-01-25T04:33:31.664Z,8.50
2018-01-25T04:35:57.859Z,5.70
2018-01-25T04:38:24.011Z,9.67
2018-01-25T04:40:50.210Z,6.97
2018-01-25T04:43:17.233Z,9.43
2018-01-25T04:45:43.425Z,7.23
2018-01-25T04:48:10.330Z,9.40
2018-01-25T04:50:36.548Z,10.53
2018-01-25T04:53:02.725Z,6.00
2018-01-25T04:55:28.885Z,7.93
2018-01-25T04:57:55.075Z,12.50
2018-01-25T05:00:22.045Z,6.37
2018-01-25T05:02:48.273Z,8.33
2018-01-25T05:05:17.040Z,10.07
2018-01-25T05:07:44.977Z,7.47
2018-01-25T05:10:11.152Z,14.47
2018-01-25T05:12:37.385Z,8.97
2018-01-25T05:15:03.589Z,7.93
2018-01-25T05:17:35.789Z,10.30
2018-01-25T05:20:01.996Z,12.57
2018-01-25T05:22:28.167Z,8.87
2018-01-25T05:24:54.344Z,12.20
2018-01-25T05:27:20.570Z,18.93
2018-01-25T05:29:46.763Z,6.97
2018-01-25T05:32:12.965Z,8.67
2018-01-25T05:34:39.140Z,6.67
2018-01-25T05:37:05.319Z,7.20
2018-01-25T05:39:31.489Z,15.70
2018-01-25T05:41:57.662Z,6.67
2018-01-25T05:44:24.604Z,8.83
2018-01-25T05:46:51.586Z,12.27
2018-01-25T05:49:17.856Z,6.27
2018-01-25T05:51:44.029Z,8.70
2018-01-25T05:54:10.950Z,7.50
2018-01-25T05:56:37.162Z,6.73
2018-01-25T05:59:03.380Z,6.67
2018-01-25T06:01:29.537Z,8.60
2018-01-25T06:03:55.752Z,11.13
2018-01-25T06:06:29.105Z,9.50
2018-01-25T06:08:55.383Z,9.83
2018-01-25T06:11:21.601Z,15.70
2018-01-25T06:13:47.776Z,8.97
2018-01-25T06:16:13.989Z,12.67
2018-01-25T06:18:40.201Z,12.03
2018-01-25T06:21:07.100Z,9.80
2018-01-25T06:23:33.265Z,12.07
2018-01-25T06:25:59.435Z,14.97
2018-01-25T06:28:25.610Z,9.53
2018-01-25T06:30:52.545Z,10.90
2018-01-25T06:33:18.767Z,14.40
2018-01-25T06:35:44.933Z,13.73
2018-01-25T06:38:12.582Z,9.60
2018-01-25T06:40:38.767Z,16.57
2018-01-25T06:43:05.672Z,14.63
2018-01-25T06:45:31.832Z,11.20
2018-01-25T06:47:58.777Z,14.67
2018-01-25T06:50:25.143Z,12.93
2018-01-25T06:52:51.439Z,15.53
2018-01-25T06:55:17.641Z,19.53
2018-01-25T06:57:43.876Z,16.83
2018-01-25T07:00:10.057Z,13.63
2018-01-25T07:02:36.970Z,15.33
2018-01-25T07:05:03.874Z,11.53
2018-01-25T07:07:31.385Z,17.97
2018-01-25T07:09:57.787Z,20.40
2018-01-25T07:12:23.984Z,17.60
2018-01-25T07:14:50.921Z,16.97
2018-01-25T07:17:17.154Z,15.00
2018-01-25T07:19:43.393Z,16.37
2018-01-25T07:22:09.563Z,16.47
2018-01-25T07:24:35.747Z,13.60
2018-01-25T07:27:01.951Z,21.00
2018-01-25T07:29:28.129Z,16.03
2018-01-25T07:31:55.075Z,15.93
2018-01-25T07:34:21.254Z,16.83
2018-01-25T07:36:48.352Z,21.27
2018-01-25T07:39:14.564Z,22.20
2018-01-25T07:41:40.753Z,18.83
2018-01-25T07:44:07.694Z,16.30
2018-01-25T07:46:33.892Z,21.53
2018-01-25T07:49:00.076Z,15.03
2018-01-25T07:51:26.987Z,13.40
2018-01-25T07:53:53.176Z,15.37
2018-01-25T07:56:19.385Z,17.83
2018-01-25T07:58:46.372Z,14.87
2018-01-25T08:01:12.587Z,17.77
2018-01-25T08:03:38.783Z,16.40
2018-01-25T08:06:04.973Z,15.27
2018-01-25T08:08:31.276Z,21.83
2018-01-25T08:10:57.510Z,14.73
2018-01-25T08:13:30.496Z,11.13
2018-01-25T08:16:02.941Z,17.23
2018-01-25T08:18:29.135Z,21.13
2018-01-25T08:20:55.336Z,19.17
2018-01-25T08:23:21.542Z,16.20
2018-01-25T08:25:48.503Z,24.00
2018-01-25T08:28:14.736Z,16.63
2018-01-25T08:30:41.711Z,13.50
2018-01-25T08:33:07.952Z,16.23
2018-01-25T08:35:34.188Z,13.70
2018-01-25T08:38:01.109Z,14.77
2018-01-25T08:40:27.308Z,15.20
2018-01-25T08:42:53.536Z,11.80
2018-01-25T08:45:19.790Z,19.93
2018-01-25T08:47:45.996Z,19.73
2018-01-25T08:50:12.210Z,21.13
2018-01-25T08:52:39.127Z,8.67
2018-01-25T08:55:05.296Z,22.60
2018-01-25T08:57:31.500Z,9.67
2018-01-25T08:59:57.692Z,16.40
2018-01-25T09:02:23.865Z,20.07
2018-01-25T09:04:50.808Z,18.80
2018-01-25T09:07:17.026Z,20.17
2018-01-25T09:09:43.293Z,25.10
2018-01-25T09:12:09.776Z,15.03
2018-01-25T09:14:36.312Z,19.07
2018-01-25T09:17:02.502Z,15.03
2018-01-25T09:19:28.767Z,18.23
2018-01-25T09:21:54.948Z,11.63
2018-01-25T09:24:21.169Z,17.70
2018-01-25T09:26:47.404Z,19.27
2018-01-25T09:29:13.576Z,14.67
2018-01-25T09:31:39.839Z,11.50
2018-01-25T09:34:06.020Z,16.03
2018-01-25T09:36:32.188Z,15.63
2018-01-25T09:38:59.114Z,23.17
2018-01-25T09:41:26.068Z,18.83
2018-01-25T09:43:52.257Z,16.13
2018-01-25T09:46:18.446Z,11.90
2018-01-25T09:48:45.389Z,22.03
2018-01-25T09:51:11.620Z,22.53
2018-01-25T09:53:37.784Z,15.00
2018-01-25T09:56:04.735Z,15.77
2018-01-25T09:58:31.647Z,13.20
2018-01-25T10:00:57.840Z,14.73
2018-01-25T10:03:24.058Z,17.13
2018-01-25T10:05:50.263Z,15.03
2018-01-25T10:08:17.191Z,26.27
2018-01-25T10:10:43.450Z,18.87
2018-01-25T10:13:09.680Z,20.13
2018-01-25T10:15:35.898Z,19.20
2018-01-25T10:18:02.051Z,13.17
2018-01-25T10:20:29.724Z,9.60
2018-01-25T10:22:55.951Z,17.60
2018-01-25T10:25:22.164Z,13.73
2018-01-25T10:27:48.391Z,17.30
2018-01-25T10:30:14.641Z,20.27
2018-01-25T10:32:40.862Z,20.93
2018-01-25T10:35:07.084Z,19.47
2018-01-25T10:37:33.967Z,12.50
2018-01-25T10:40:00.931Z,20.07
2018-01-25T10:42:27.892Z,19.23
2018-01-25T10:44:54.809Z,13.20
2018-01-25T10:47:21.004Z,16.17
2018-01-25T10:49:47.176Z,24.13
2018-01-25T10:52:13.417Z,14.17
2018-01-25T10:54:39.622Z,19.53
2018-01-25T10:57:05.797Z,16.60
2018-01-25T10:59:31.984Z,18.27
2018-01-25T11:02:04.306Z,16.20
2018-01-25T11:04:31.249Z,23.43
2018-01-25T11:06:57.425Z,14.33
2018-01-25T11:09:24.349Z,16.03
2018-01-25T11:11:50.596Z,14.17
2018-01-25T11:14:16.943Z,17.63
2018-01-25T11:16:43.874Z,23.50
2018-01-25T11:19:10.785Z,16.60
2018-01-25T11:21:44.880Z,17.63
2018-01-25T11:24:11.053Z,15.10
2018-01-25T11:26:37.277Z,9.70
2018-01-25T11:29:03.424Z,10.67
2018-01-25T11:31:30.349Z,13.30
2018-01-25T11:33:56.502Z,16.13
2018-01-25T11:36:30.499Z,17.83
2018-01-25T11:38:57.448Z,15.73
2018-01-25T11:41:23.661Z,16.93
2018-01-25T11:43:49.867Z,15.50
2018-01-25T11:46:16.143Z,16.43
2018-01-25T11:48:42.303Z,13.03
2018-01-25T11:51:08.517Z,11.83
2018-01-25T11:53:34.716Z,18.37
2018-01-25T11:56:00.884Z,14.80
2018-01-25T11:58:27.089Z,16.23
2018-01-25T12:00:53.285Z,16.43
2018-01-25T12:03:20.197Z,12.60
2018-01-25T12:05:46.386Z,17.93
2018-01-25T12:08:12.572Z,16.43
2018-01-25T12:10:38.795Z,15.33
2018-01-25T12:13:05.028Z,16.97
2018-01-25T12:15:31.464Z,18.30
2018-01-25T12:17:57.656Z,17.13
2018-01-25T12:20:24.579Z,16.57
2018-01-25T12:22:50.743Z,16.03
2018-01-25T12:25:17.682Z,21.97
2018-01-25T12:27:44.619Z,23.07
2018-01-25T12:30:11.547Z,18.30
2018-01-25T12:32:37.734Z,24.10
2018-01-25T12:35:04.656Z,23.30
2018-01-25T12:37:30.850Z,22.30
2018-01-25T12:39:57.011Z,33.23
2018-01-25T12:42:23.191Z,21.63
2018-01-25T12:44:49.391Z,20.93
2018-01-25T12:47:16.315Z,28.73
2018-01-25T12:49:42.500Z,19.90
2018-01-25T12:52:09.411Z,26.50
2018-01-25T12:54:37.081Z,23.77
2018-01-25T12:57:04.023Z,39.87
2018-01-25T12:59:30.203Z,18.97
2018-01-25T13:01:57.124Z,12.13
2018-01-25T13:04:24.108Z,34.47
2018-01-25T13:06:51.004Z,27.63
2018-01-25T13:09:17.932Z,23.90
2018-01-25T13:11:44.164Z,21.17
2018-01-25T13:14:11.331Z,20.60
2018-01-25T13:16:37.546Z,24.57
2018-01-25T13:19:03.724Z,20.87
2018-01-25T13:21:29.896Z,21.13
2018-01-25T13:23:56.083Z,19.30
2018-01-25T13:26:22.300Z,15.70
2018-01-25T13:28:48.463Z,27.27
2018-01-25T13:31:14.623Z,26.03
2018-01-25T13:33:41.560Z,22.30
2018-01-25T13:36:08.484Z,22.07
2018-01-25T13:38:34.684Z,20.90
2018-01-25T13:41:00.929Z,25.43
2018-01-25T13:43:27.113Z,25.43
2018-01-25T13:45:54.040Z,24.93
2018-01-25T13:48:20.225Z,35.90
2018-01-25T13:50:47.120Z,19.73
2018-01-25T13:53:13.331Z,24.93
2018-01-25T13:55:39.606Z,25.20
2018-01-25T13:58:06.548Z,38.93
2018-01-25T14:00:32.733Z,23.23
2018-01-25T14:02:58.929Z,25.00
2018-01-25T14:05:25.843Z,22.27
2018-01-25T14:07:52.063Z,21.73
2018-01-25T14:10:18.309Z,17.70
2018-01-25T14:12:44.504Z,17.43
2018-01-25T14:15:10.836Z,27.77
2018-01-25T14:17:37.096Z,19.23
2018-01-25T14:20:03.283Z,35.87
2018-01-25T14:22:29.453Z,32.80
2018-01-25T14:24:55.634Z,24.33
2018-01-25T14:27:21.837Z,26.20
2018-01-25T14:29:48.025Z,22.30
2018-01-25T14:32:14.295Z,14.20
2018-01-25T14:34:40.469Z,26.90
2018-01-25T14:37:06.996Z,20.20
2018-01-25T14:39:33.341Z,24.57
2018-01-25T14:42:00.291Z,26.53
2018-01-25T14:44:26.476Z,18.40
2018-01-25T14:46:53.436Z,21.63
2018-01-25T14:49:20.351Z,22.50
2018-01-25T14:51:46.521Z,20.70
2018-01-25T14:54:12.752Z,25.73
2018-01-25T14:56:38.931Z,22.17
2018-01-25T14:59:05.151Z,28.30
2018-01-25T15:01:31.420Z,20.43
2018-01-25T15:03:57.664Z,18.40
2018-01-25T15:06:24.006Z,25.03
2018-01-25T15:08:50.224Z,19.60
2018-01-25T15:11:16.420Z,23.77
2018-01-25T15:13:42.591Z,18.03
2018-01-25T15:16:08.917Z,21.53
2018-01-25T15:18:35.153Z,27.77
2018-01-25T15:21:02.096Z,26.03
2018-01-25T15:23:28.301Z,14.87
2018-01-25T15:26:00.591Z,24.30
2018-01-25T15:28:26.807Z,23.60
2018-01-25T15:30:53.080Z,25.50
2018-01-25T15:33:19.817Z,19.50
2018-01-25T15:35:46.887Z,24.13
2018-01-25T15:38:14.560Z,22.00
2018-01-25T15:40:41.484Z,21.00
2018-01-25T15:43:07.672Z,34.60
2018-01-25T15:45:33.875Z,27.67
2018-01-25T15:48:01.284Z,21.37
2018-01-25T15:50:28.574Z,26.53
2018-01-25T15:52:54.793Z,35.43
2018-01-25T15:55:20.981Z,20.60
2018-01-25T15:57:47.900Z,32.80
2018-01-25T16:00:14.128Z,23.90
2018-01-25T16:02:40.372Z,24.93
2018-01-25T16:05:06.546Z,23.80
2018-01-25T16:07:32.755Z,21.63
2018-01-25T16:09:59.699Z,24.67
2018-01-25T16:12:27.411Z,23.03
2018-01-25T16:14:53.620Z,30.10
2018-01-25T16:17:20.641Z,28.00
2018-01-25T16:19:47.043Z,19.77
2018-01-25T16:22:13.240Z,28.10
2018-01-25T16:24:39.544Z,21.90
2018-01-25T16:27:05.629Z,23.47
2018-01-25T16:29:32.551Z,20.50
2018-01-25T16:32:00.204Z,23.40
2018-01-25T16:34:26.371Z,24.53
2018-01-25T16:36:52.623Z,27.10
2018-01-25T16:39:18.860Z,21.13
2018-01-25T16:41:45.048Z,24.70
2018-01-25T16:44:11.408Z,25.80
2018-01-25T16:46:38.345Z,27.87
2018-01-25T16:49:04.580Z,23.63
2018-01-25T16:51:31.600Z,25.60
2018-01-25T16:53:58.575Z,30.77
2018-01-25T16:56:24.757Z,24.00
2018-01-25T16:58:50.964Z,29.63
2018-01-25T17:01:17.904Z,23.47
2018-01-25T17:03:44.117Z,20.07
2018-01-25T17:06:11.083Z,29.43
2018-01-25T17:08:37.291Z,23.30
2018-01-25T17:11:03.462Z,20.70
2018-01-25T17:13:30.395Z,19.80
2018-01-25T17:15:56.588Z,28.23
2018-01-25T17:18:22.856Z,23.20
2018-01-25T17:20:49.815Z,30.13
2018-01-25T17:23:15.990Z,20.13
2018-01-25T17:25:42.173Z,28.90
2018-01-25T17:28:08.358Z,29.00
2018-01-25T17:30:34.536Z,35.73
2018-01-25T17:33:00.699Z,27.83
2018-01-25T17:35:27.633Z,24.97
2018-01-25T17:37:54.587Z,33.27
2018-01-25T17:40:20.758Z,23.50
2018-01-25T17:42:47.672Z,33.33
2018-01-25T17:45:13.829Z,24.07
2018-01-25T17:47:40.736Z,28.73
2018-01-25T17:50:06.940Z,27.70
2018-01-25T17:52:33.096Z,22.43
2018-01-25T17:54:59.255Z,30.83
2018-01-25T17:57:25.484Z,27.90
2018-01-25T17:59:51.644Z,22.83
2018-01-25T18:02:18.558Z,36.67
2018-01-25T18:04:44.728Z,28.67
2018-01-25T18:07:11.641Z,26.70
2018-01-25T18:09:37.828Z,45.30
2018-01-25T18:12:04.005Z,29.20
2018-01-25T18:14:30.166Z,25.60
2018-01-25T18:16:56.364Z,30.07
2018-01-25T18:19:22.692Z,23.20
2018-01-25T18:21:49.143Z,27.53
2018-01-25T18:24:15.363Z,19.33
2018-01-25T18:26:41.571Z,24.83
2018-01-25T18:29:07.746Z,23.90
2018-01-25T18:31:33.906Z,20.03
2018-01-25T18:34:00.872Z,30.13
2018-01-25T18:36:27.806Z,35.67
2018-01-25T18:38:54.764Z,30.23
2018-01-25T18:41:29.300Z,30.27
2018-01-25T18:43:55.580Z,27.87
2018-01-25T18:46:22.584Z,29.17
2018-01-25T18:48:48.869Z,31.87
2018-01-25T18:51:15.883Z,31.43
2018-01-25T18:53:42.178Z,23.83
2018-01-25T18:56:08.440Z,25.13
2018-01-25T18:58:34.723Z,27.83
2018-01-25T19:01:01.038Z,30.43
2018-01-25T19:03:27.334Z,29.63
2018-01-25T19:05:53.591Z,34.30
2018-01-25T19:08:19.907Z,40.40
2018-01-25T19:10:46.176Z,39.87
2018-01-25T19:13:12.458Z,37.53
2018-01-25T19:15:39.444Z,29.20
2018-01-25T19:18:05.713Z,51.97
2018-01-25T19:20:32.776Z,43.20
2018-01-25T19:23:00.035Z,53.17
2018-01-25T19:25:27.019Z,46.33
2018-01-25T19:27:54.043Z,40.70
2018-01-25T19:30:20.463Z,39.73
2018-01-25T19:32:48.182Z,35.70
2018-01-25T19:35:15.804Z,34.83
2018-01-25T19:37:43.104Z,34.27
2018-01-25T19:40:10.572Z,35.70
2018-01-25T19:42:36.862Z,33.70
2018-01-25T19:45:03.208Z,28.03
2018-01-25T19:47:29.842Z,36.40
2018-01-25T19:49:56.714Z,50.97
2018-01-25T19:52:23.996Z,36.70
2018-01-25T19:54:50.357Z,30.77
2018-01-25T19:57:16.624Z,31.97
2018-01-25T19:59:43.724Z,26.70
2018-01-25T20:02:10.001Z,24.80
2018-01-25T20:04:36.840Z,28.80
2018-01-25T20:07:03.150Z,25.03
2018-01-25T20:09:29.414Z,28.07
2018-01-25T20:11:55.689Z,19.67
2018-01-25T20:14:22.017Z,25.13
2018-01-25T20:16:48.284Z,24.77
2018-01-25T20:19:14.562Z,29.30
2018-01-25T20:21:40.900Z,30.50
2018-01-25T20:24:07.248Z,24.50
2018-01-25T20:26:34.196Z,30.50
2018-01-25T20:29:01.124Z,22.73
2018-01-25T20:31:27.341Z,25.93
2018-01-25T20:33:53.534Z,25.87
2018-01-25T20:36:20.469Z,25.23
2018-01-25T20:38:47.443Z,30.20
2018-01-25T20:41:14.367Z,18.20
2018-01-25T20:43:41.353Z,23.13
2018-01-25T20:46:07.557Z,25.97
2018-01-25T20:48:33.807Z,26.13
2018-01-25T20:51:00.023Z,30.37
2018-01-25T20:53:26.388Z,37.27
2018-01-25T20:55:52.576Z,36.67
2018-01-25T20:58:18.792Z,30.70
2018-01-25T21:00:45.004Z,27.13
2018-01-25T21:03:11.284Z,19.53
2018-01-25T21:05:38.959Z,29.13
2018-01-25T21:08:05.155Z,27.43
2018-01-25T21:10:31.348Z,28.67
2018-01-25T21:12:58.297Z,26.23
2018-01-25T21:15:24.545Z,22.43
2018-01-25T21:17:51.483Z,22.77
2018-01-25T21:20:18.420Z,27.90
2018-01-25T21:22:45.431Z,29.13
2018-01-25T21:25:11.804Z,29.20
2018-01-25T21:27:38.756Z,28.73
2018-01-25T21:30:04.984Z,20.00
2018-01-25T21:32:31.168Z,33.33
2018-01-25T21:34:57.379Z,22.30
2018-01-25T21:37:23.624Z,26.23
2018-01-25T21:39:49.835Z,26.30
2018-01-25T21:42:16.776Z,23.60
2018-01-25T21:44:43.724Z,25.10
2018-01-25T21:47:09.909Z,24.63
2018-01-25T21:49:36.096Z,20.77
2018-01-25T21:52:02.300Z,21.67
2018-01-25T21:54:28.467Z,27.77
2018-01-25T21:56:54.679Z,23.23
2018-01-25T21:59:20.896Z,21.77
2018-01-25T22:01:47.078Z,24.63
2018-01-25T22:04:14.016Z,24.50
2018-01-25T22:06:40.967Z,24.07
2018-01-25T22:09:07.157Z,20.90
2018-01-25T22:11:33.355Z,31.77
2018-01-25T22:14:00.284Z,25.07
2018-01-25T22:16:26.501Z,25.53
2018-01-25T22:18:52.700Z,19.90
2018-01-25T22:21:18.895Z,27.07
2018-01-25T22:23:45.172Z,33.20
2018-01-25T22:26:12.306Z,26.77
2018-01-25T22:28:39.221Z,21.50
2018-01-25T22:31:06.182Z,26.73
2018-01-25T22:33:32.383Z,29.57
2018-01-25T22:35:58.680Z,19.10
2018-01-25T22:38:24.916Z,25.30
2018-01-25T22:40:51.148Z,34.70
2018-01-25T22:43:18.086Z,22.20
2018-01-25T22:45:45.029Z,29.03
2018-01-25T22:48:11.255Z,28.50
2018-01-25T22:50:38.225Z,34.80
2018-01-25T22:53:05.135Z,25.63
2018-01-25T22:55:31.359Z,30.03
2018-01-25T22:57:57.553Z,19.57
2018-01-25T23:00:36.140Z,24.10
2018-01-25T23:03:02.381Z,34.30
2018-01-25T23:05:28.580Z,26.43
2018-01-25T23:07:54.779Z,25.40
2018-01-25T23:10:21.007Z,24.97
2018-01-25T23:12:48.033Z,32.63
2018-01-25T23:15:15.000Z,27.47
2018-01-25T23:17:41.960Z,31.83
2018-01-25T23:20:08.904Z,28.17
2018-01-25T23:22:35.831Z,29.77
2018-01-25T23:25:02.198Z,26.47
2018-01-25T23:27:28.457Z,26.33
2018-01-25T23:29:54.640Z,30.37
2018-01-25T23:32:20.832Z,24.90
2018-01-25T23:34:47.006Z,31.87
2018-01-25T23:37:13.190Z,22.90
2018-01-25T23:39:39.393Z,19.20
2018-01-25T23:42:06.340Z,27.73
2018-01-25T23:44:33.267Z,26.27
2018-01-25T23:46:59.488Z,29.40
2018-01-25T23:49:25.708Z,26.30
2018-01-25T23:51:51.900Z,25.83
2018-01-25T23:54:18.856Z,23.27
2018-01-25T23:56:45.795Z,28.63
2018-01-25T23:59:12.716Z,27.80
